sensor_id;sensor_type;location;lat;lon;timestamp;temperature;humidity
68248;SHT30;55064;49.636;12.164;2024-01-30T00:01:38;-1.82;91.65
68248;SHT30;55064;49.636;12.164;2024-01-30T00:04:04;-1.85;91.37
68248;SHT30;55064;49.636;12.164;2024-01-30T00:06:29;-1.89;91.44
68248;SHT30;55064;49.636;12.164;2024-01-30T00:08:54;-1.89;91.53
68248;SHT30;55064;49.636;12.164;2024-01-30T00:11:20;-1.94;91.51
68248;SHT30;55064;49.636;12.164;2024-01-30T00:13:46;-1.96;91.71
68248;SHT30;55064;49.636;12.164;2024-01-30T00:16:21;-1.96;91.77
68248;SHT30;55064;49.636;12.164;2024-01-30T00:18:47;-1.99;92.05
68248;SHT30;55064;49.636;12.164;2024-01-30T00:21:13;-2.00;92.34
68248;SHT30;55064;49.636;12.164;2024-01-30T00:23:38;-2.00;92.21
68248;SHT30;55064;49.636;12.164;2024-01-30T00:26:03;-2.00;92.08
68248;SHT30;55064;49.636;12.164;2024-01-30T00:28:30;-2.00;92.18
68248;SHT30;55064;49.636;12.164;2024-01-30T00:30:55;-2.06;92.13
68248;SHT30;55064;49.636;12.164;2024-01-30T00:33:21;-2.06;91.94
68248;SHT30;55064;49.636;12.164;2024-01-30T00:35:47;-2.02;91.57
68248;SHT30;55064;49.636;12.164;2024-01-30T00:38:12;-2.10;91.38
68248;SHT30;55064;49.636;12.164;2024-01-30T00:40:37;-2.13;91.40
68248;SHT30;55064;49.636;12.164;2024-01-30T00:43:03;-2.15;91.42
68248;SHT30;55064;49.636;12.164;2024-01-30T00:45:28;-2.23;91.63
68248;SHT30;55064;49.636;12.164;2024-01-30T00:47:53;-2.26;92.03
68248;SHT30;55064;49.636;12.164;2024-01-30T00:50:19;-2.24;92.52
68248;SHT30;55064;49.636;12.164;2024-01-30T00:52:44;-2.23;92.68
68248;SHT30;55064;49.636;12.164;2024-01-30T00:55:10;-2.20;92.70
68248;SHT30;55064;49.636;12.164;2024-01-30T00:57:36;-2.24;92.80
68248;SHT30;55064;49.636;12.164;2024-01-30T01:00:02;-2.26;92.63
68248;SHT30;55064;49.636;12.164;2024-01-30T01:02:28;-2.24;92.84
68248;SHT30;55064;49.636;12.164;2024-01-30T01:04:53;-2.21;92.80
68248;SHT30;55064;49.636;12.164;2024-01-30T01:07:19;-2.23;92.81
68248;SHT30;55064;49.636;12.164;2024-01-30T01:09:44;-2.19;92.81
68248;SHT30;55064;49.636;12.164;2024-01-30T01:12:09;-2.21;92.79
68248;SHT30;55064;49.636;12.164;2024-01-30T01:14:35;-2.23;92.79
68248;SHT30;55064;49.636;12.164;2024-01-30T01:17:01;-2.24;93.04
68248;SHT30;55064;49.636;12.164;2024-01-30T01:19:26;-2.21;92.99
68248;SHT30;55064;49.636;12.164;2024-01-30T01:21:52;-2.30;93.26
68248;SHT30;55064;49.636;12.164;2024-01-30T01:24:18;-2.27;93.10
68248;SHT30;55064;49.636;12.164;2024-01-30T01:26:43;-2.31;93.20
68248;SHT30;55064;49.636;12.164;2024-01-30T01:29:09;-2.44;93.09
68248;SHT30;55064;49.636;12.164;2024-01-30T01:31:37;-2.44;93.36
68248;SHT30;55064;49.636;12.164;2024-01-30T01:34:09;-2.41;93.40
68248;SHT30;55064;49.636;12.164;2024-01-30T01:36:36;-2.42;93.28
68248;SHT30;55064;49.636;12.164;2024-01-30T01:39:01;-2.42;93.12
68248;SHT30;55064;49.636;12.164;2024-01-30T01:41:33;-2.51;93.62
68248;SHT30;55064;49.636;12.164;2024-01-30T01:43:59;-2.51;93.55
68248;SHT30;55064;49.636;12.164;2024-01-30T01:46:30;-2.54;93.57
68248;SHT30;55064;49.636;12.164;2024-01-30T01:48:58;-2.48;93.50
68248;SHT30;55064;49.636;12.164;2024-01-30T01:51:24;-2.48;93.27
68248;SHT30;55064;49.636;12.164;2024-01-30T01:53:56;-2.48;93.33
68248;SHT30;55064;49.636;12.164;2024-01-30T01:56:22;-2.44;93.33
68248;SHT30;55064;49.636;12.164;2024-01-30T01:58:49;-2.47;93.32
68248;SHT30;55064;49.636;12.164;2024-01-30T02:01:16;-2.48;93.46
68248;SHT30;55064;49.636;12.164;2024-01-30T02:03:43;-2.48;93.36
68248;SHT30;55064;49.636;12.164;2024-01-30T02:06:09;-2.51;93.29
68248;SHT30;55064;49.636;12.164;2024-01-30T02:08:37;-2.48;93.58
68248;SHT30;55064;49.636;12.164;2024-01-30T02:11:02;-2.48;93.74
68248;SHT30;55064;49.636;12.164;2024-01-30T02:13:27;-2.49;93.74
68248;SHT30;55064;49.636;12.164;2024-01-30T02:15:53;-2.51;93.75
68248;SHT30;55064;49.636;12.164;2024-01-30T02:18:20;-2.57;93.61
68248;SHT30;55064;49.636;12.164;2024-01-30T02:20:48;-2.59;93.63
68248;SHT30;55064;49.636;12.164;2024-01-30T02:23:15;-2.62;93.62
68248;SHT30;55064;49.636;12.164;2024-01-30T02:25:41;-2.64;93.52
68248;SHT30;55064;49.636;12.164;2024-01-30T02:28:10;-2.62;93.74
68248;SHT30;55064;49.636;12.164;2024-01-30T02:30:37;-2.64;93.60
68248;SHT30;55064;49.636;12.164;2024-01-30T02:33:02;-2.64;93.81
68248;SHT30;55064;49.636;12.164;2024-01-30T02:35:27;-2.65;93.78
68248;SHT30;55064;49.636;12.164;2024-01-30T02:37:53;-2.76;93.56
68248;SHT30;55064;49.636;12.164;2024-01-30T02:40:19;-2.79;94.04
68248;SHT30;55064;49.636;12.164;2024-01-30T02:42:45;-2.85;93.97
68248;SHT30;55064;49.636;12.164;2024-01-30T02:45:10;-2.80;94.21
68248;SHT30;55064;49.636;12.164;2024-01-30T02:47:36;-2.78;94.12
68248;SHT30;55064;49.636;12.164;2024-01-30T02:50:01;-2.75;93.71
68248;SHT30;55064;49.636;12.164;2024-01-30T02:52:27;-2.76;93.67
68248;SHT30;55064;49.636;12.164;2024-01-30T02:54:52;-2.76;93.20
68248;SHT30;55064;49.636;12.164;2024-01-30T02:57:18;-2.76;93.09
68248;SHT30;55064;49.636;12.164;2024-01-30T02:59:43;-2.79;92.72
68248;SHT30;55064;49.636;12.164;2024-01-30T03:02:08;-2.89;93.00
68248;SHT30;55064;49.636;12.164;2024-01-30T03:04:33;-2.87;93.39
68248;SHT30;55064;49.636;12.164;2024-01-30T03:06:59;-2.95;93.64
68248;SHT30;55064;49.636;12.164;2024-01-30T03:09:24;-3.00;94.17
68248;SHT30;55064;49.636;12.164;2024-01-30T03:11:50;-2.92;94.18
68248;SHT30;55064;49.636;12.164;2024-01-30T03:14:15;-2.97;94.26
68248;SHT30;55064;49.636;12.164;2024-01-30T03:16:41;-2.90;94.23
68248;SHT30;55064;49.636;12.164;2024-01-30T03:19:06;-2.89;94.22
68248;SHT30;55064;49.636;12.164;2024-01-30T03:21:35;-2.89;94.05
68248;SHT30;55064;49.636;12.164;2024-01-30T03:24:00;-2.87;93.99
68248;SHT30;55064;49.636;12.164;2024-01-30T03:26:27;-2.90;94.06
68248;SHT30;55064;49.636;12.164;2024-01-30T03:28:52;-2.90;94.32
68248;SHT30;55064;49.636;12.164;2024-01-30T03:31:17;-2.95;94.28
68248;SHT30;55064;49.636;12.164;2024-01-30T03:33:43;-2.99;94.47
68248;SHT30;55064;49.636;12.164;2024-01-30T03:36:09;-2.99;94.52
68248;SHT30;55064;49.636;12.164;2024-01-30T03:38:34;-3.06;94.99
68248;SHT30;55064;49.636;12.164;2024-01-30T03:41:00;-3.07;95.08
68248;SHT30;55064;49.636;12.164;2024-01-30T03:43:26;-3.04;94.92
68248;SHT30;55064;49.636;12.164;2024-01-30T03:45:51;-3.01;94.77
68248;SHT30;55064;49.636;12.164;2024-01-30T03:48:17;-3.00;94.82
68248;SHT30;55064;49.636;12.164;2024-01-30T03:50:42;-3.00;94.76
68248;SHT30;55064;49.636;12.164;2024-01-30T03:53:07;-2.96;94.67
68248;SHT30;55064;49.636;12.164;2024-01-30T03:55:33;-2.95;94.49
68248;SHT30;55064;49.636;12.164;2024-01-30T03:57:58;-2.96;94.56
68248;SHT30;55064;49.636;12.164;2024-01-30T04:00:23;-2.95;94.21
68248;SHT30;55064;49.636;12.164;2024-01-30T04:02:49;-2.95;94.01
68248;SHT30;55064;49.636;12.164;2024-01-30T04:05:16;-2.97;93.44
68248;SHT30;55064;49.636;12.164;2024-01-30T04:07:41;-2.97;93.21
68248;SHT30;55064;49.636;12.164;2024-01-30T04:10:09;-3.03;93.22
68248;SHT30;55064;49.636;12.164;2024-01-30T04:12:35;-3.08;93.61
68248;SHT30;55064;49.636;12.164;2024-01-30T04:15:00;-3.07;93.37
68248;SHT30;55064;49.636;12.164;2024-01-30T04:17:26;-3.07;93.32
68248;SHT30;55064;49.636;12.164;2024-01-30T04:19:53;-3.13;93.54
68248;SHT30;55064;49.636;12.164;2024-01-30T04:22:18;-3.11;93.45
68248;SHT30;55064;49.636;12.164;2024-01-30T04:24:44;-3.10;93.52
68248;SHT30;55064;49.636;12.164;2024-01-30T04:27:09;-3.13;93.73
68248;SHT30;55064;49.636;12.164;2024-01-30T04:29:34;-3.14;93.71
68248;SHT30;55064;49.636;12.164;2024-01-30T04:32:00;-3.17;93.68
68248;SHT30;55064;49.636;12.164;2024-01-30T04:34:25;-3.23;93.70
68248;SHT30;55064;49.636;12.164;2024-01-30T04:36:50;-3.20;93.57
68248;SHT30;55064;49.636;12.164;2024-01-30T04:39:16;-3.23;93.67
68248;SHT30;55064;49.636;12.164;2024-01-30T04:41:41;-3.24;93.54
68248;SHT30;55064;49.636;12.164;2024-01-30T04:44:07;-3.25;93.83
68248;SHT30;55064;49.636;12.164;2024-01-30T04:46:32;-3.23;93.64
68248;SHT30;55064;49.636;12.164;2024-01-30T04:48:59;-3.27;93.31
68248;SHT30;55064;49.636;12.164;2024-01-30T04:51:25;-3.35;93.88
68248;SHT30;55064;49.636;12.164;2024-01-30T04:53:50;-3.41;94.42
68248;SHT30;55064;49.636;12.164;2024-01-30T04:56:15;-3.41;94.93
68248;SHT30;55064;49.636;12.164;2024-01-30T04:58:41;-3.40;95.39
68248;SHT30;55064;49.636;12.164;2024-01-30T05:01:06;-3.38;95.40
68248;SHT30;55064;49.636;12.164;2024-01-30T05:03:35;-3.33;95.23
68248;SHT30;55064;49.636;12.164;2024-01-30T05:06:01;-3.24;94.86
68248;SHT30;55064;49.636;12.164;2024-01-30T05:08:26;-3.27;94.85
68248;SHT30;55064;49.636;12.164;2024-01-30T05:10:51;-3.27;94.70
68248;SHT30;55064;49.636;12.164;2024-01-30T05:13:17;-3.30;94.83
68248;SHT30;55064;49.636;12.164;2024-01-30T05:15:42;-3.33;94.63
68248;SHT30;55064;49.636;12.164;2024-01-30T05:18:08;-3.34;94.71
68248;SHT30;55064;49.636;12.164;2024-01-30T05:20:33;-3.33;94.41
68248;SHT30;55064;49.636;12.164;2024-01-30T05:22:58;-3.37;94.43
68248;SHT30;55064;49.636;12.164;2024-01-30T05:25:24;-3.35;94.49
68248;SHT30;55064;49.636;12.164;2024-01-30T05:27:49;-3.48;94.78
68248;SHT30;55064;49.636;12.164;2024-01-30T05:30:15;-3.42;94.97
68248;SHT30;55064;49.636;12.164;2024-01-30T05:32:40;-3.44;95.15
68248;SHT30;55064;49.636;12.164;2024-01-30T05:35:06;-3.45;95.01
68248;SHT30;55064;49.636;12.164;2024-01-30T05:37:33;-3.48;94.85
68248;SHT30;55064;49.636;12.164;2024-01-30T05:39:58;-3.44;94.65
68248;SHT30;55064;49.636;12.164;2024-01-30T05:42:24;-3.44;94.35
68248;SHT30;55064;49.636;12.164;2024-01-30T05:44:49;-3.48;94.34
68248;SHT30;55064;49.636;12.164;2024-01-30T05:47:15;-3.50;94.56
68248;SHT30;55064;49.636;12.164;2024-01-30T05:49:41;-3.48;94.56
68248;SHT30;55064;49.636;12.164;2024-01-30T05:52:07;-3.51;94.37
68248;SHT30;55064;49.636;12.164;2024-01-30T05:54:32;-3.55;94.61
68248;SHT30;55064;49.636;12.164;2024-01-30T05:56:57;-3.47;94.72
68248;SHT30;55064;49.636;12.164;2024-01-30T05:59:23;-3.50;94.54
68248;SHT30;55064;49.636;12.164;2024-01-30T06:01:48;-3.51;94.37
68248;SHT30;55064;49.636;12.164;2024-01-30T06:04:14;-3.50;94.58
68248;SHT30;55064;49.636;12.164;2024-01-30T06:06:40;-3.45;94.59
68248;SHT30;55064;49.636;12.164;2024-01-30T06:09:05;-3.37;94.34
68248;SHT30;55064;49.636;12.164;2024-01-30T06:11:30;-3.45;94.15
68248;SHT30;55064;49.636;12.164;2024-01-30T06:13:56;-3.47;94.40
68248;SHT30;55064;49.636;12.164;2024-01-30T06:16:21;-3.51;94.58
68248;SHT30;55064;49.636;12.164;2024-01-30T06:18:48;-3.62;95.03
68248;SHT30;55064;49.636;12.164;2024-01-30T06:21:13;-3.59;95.49
68248;SHT30;55064;49.636;12.164;2024-01-30T06:23:39;-3.61;95.41
68248;SHT30;55064;49.636;12.164;2024-01-30T06:26:06;-3.61;95.52
68248;SHT30;55064;49.636;12.164;2024-01-30T06:28:31;-3.59;95.58
68248;SHT30;55064;49.636;12.164;2024-01-30T06:30:57;-3.56;95.47
68248;SHT30;55064;49.636;12.164;2024-01-30T06:33:22;-3.55;95.20
68248;SHT30;55064;49.636;12.164;2024-01-30T06:35:48;-3.56;95.25
68248;SHT30;55064;49.636;12.164;2024-01-30T06:38:13;-3.58;95.19
68248;SHT30;55064;49.636;12.164;2024-01-30T06:40:41;-3.58;95.16
68248;SHT30;55064;49.636;12.164;2024-01-30T06:43:06;-3.59;95.19
68248;SHT30;55064;49.636;12.164;2024-01-30T06:45:33;-3.59;95.34
68248;SHT30;55064;49.636;12.164;2024-01-30T06:47:59;-3.62;95.61
68248;SHT30;55064;49.636;12.164;2024-01-30T06:50:25;-3.56;95.73
68248;SHT30;55064;49.636;12.164;2024-01-30T06:52:50;-3.56;95.95
68248;SHT30;55064;49.636;12.164;2024-01-30T06:55:16;-3.52;96.24
68248;SHT30;55064;49.636;12.164;2024-01-30T06:57:41;-3.54;96.58
68248;SHT30;55064;49.636;12.164;2024-01-30T07:00:07;-3.47;96.77
68248;SHT30;55064;49.636;12.164;2024-01-30T07:02:32;-3.38;96.72
68248;SHT30;55064;49.636;12.164;2024-01-30T07:04:58;-3.31;96.95
68248;SHT30;55064;49.636;12.164;2024-01-30T07:07:25;-3.27;97.16
68248;SHT30;55064;49.636;12.164;2024-01-30T07:09:50;-3.27;96.88
68248;SHT30;55064;49.636;12.164;2024-01-30T07:12:20;-3.20;96.39
68248;SHT30;55064;49.636;12.164;2024-01-30T07:14:46;-3.13;95.73
68248;SHT30;55064;49.636;12.164;2024-01-30T07:17:11;-3.14;95.74
68248;SHT30;55064;49.636;12.164;2024-01-30T07:19:37;-3.16;95.33
68248;SHT30;55064;49.636;12.164;2024-01-30T07:22:02;-3.16;94.99
68248;SHT30;55064;49.636;12.164;2024-01-30T07:24:27;-3.17;95.24
68248;SHT30;55064;49.636;12.164;2024-01-30T07:26:53;-3.07;95.22
68248;SHT30;55064;49.636;12.164;2024-01-30T07:29:18;-2.93;95.04
68248;SHT30;55064;49.636;12.164;2024-01-30T07:31:44;-2.92;94.56
68248;SHT30;55064;49.636;12.164;2024-01-30T07:34:09;-2.96;94.73
68248;SHT30;55064;49.636;12.164;2024-01-30T07:36:35;-2.92;95.01
68248;SHT30;55064;49.636;12.164;2024-01-30T07:39:00;-2.83;95.04
68248;SHT30;55064;49.636;12.164;2024-01-30T07:41:26;-2.87;95.00
68248;SHT30;55064;49.636;12.164;2024-01-30T07:43:52;-2.80;94.73
68248;SHT30;55064;49.636;12.164;2024-01-30T07:46:18;-2.76;94.59
68248;SHT30;55064;49.636;12.164;2024-01-30T07:48:44;-2.70;94.63
68248;SHT30;55064;49.636;12.164;2024-01-30T07:51:09;-2.58;94.66
68248;SHT30;55064;49.636;12.164;2024-01-30T07:53:34;-2.52;94.54
68248;SHT30;55064;49.636;12.164;2024-01-30T07:56:00;-2.57;94.47
68248;SHT30;55064;49.636;12.164;2024-01-30T07:58:25;-2.54;94.53
68248;SHT30;55064;49.636;12.164;2024-01-30T08:00:52;-2.49;94.51
68248;SHT30;55064;49.636;12.164;2024-01-30T08:03:18;-2.37;94.45
68248;SHT30;55064;49.636;12.164;2024-01-30T08:05:44;-2.23;94.06
68248;SHT30;55064;49.636;12.164;2024-01-30T08:08:09;-1.96;93.71
68248;SHT30;55064;49.636;12.164;2024-01-30T08:10:34;-1.61;93.52
68248;SHT30;55064;49.636;12.164;2024-01-30T08:13:00;-1.34;92.79
68248;SHT30;55064;49.636;12.164;2024-01-30T08:15:25;-1.21;92.21
68248;SHT30;55064;49.636;12.164;2024-01-30T08:17:51;-1.04;92.00
68248;SHT30;55064;49.636;12.164;2024-01-30T08:20:20;-0.86;91.13
68248;SHT30;55064;49.636;12.164;2024-01-30T08:22:48;-0.79;91.02
68248;SHT30;55064;49.636;12.164;2024-01-30T08:25:14;-0.66;90.97
68248;SHT30;55064;49.636;12.164;2024-01-30T08:27:39;-0.61;90.64
68248;SHT30;55064;49.636;12.164;2024-01-30T08:30:06;-0.51;90.49
68248;SHT30;55064;49.636;12.164;2024-01-30T08:32:32;-0.47;90.49
68248;SHT30;55064;49.636;12.164;2024-01-30T08:34:57;-0.30;90.69
68248;SHT30;55064;49.636;12.164;2024-01-30T08:37:23;-0.05;89.72
68248;SHT30;55064;49.636;12.164;2024-01-30T08:39:48;0.37;88.94
68248;SHT30;55064;49.636;12.164;2024-01-30T08:42:14;0.70;87.91
68248;SHT30;55064;49.636;12.164;2024-01-30T08:44:39;1.01;87.13
68248;SHT30;55064;49.636;12.164;2024-01-30T08:47:05;0.94;86.17
68248;SHT30;55064;49.636;12.164;2024-01-30T08:49:31;0.98;85.92
68248;SHT30;55064;49.636;12.164;2024-01-30T08:51:56;0.69;86.56
68248;SHT30;55064;49.636;12.164;2024-01-30T08:54:23;0.81;87.14
68248;SHT30;55064;49.636;12.164;2024-01-30T08:56:48;1.00;86.66
68248;SHT30;55064;49.636;12.164;2024-01-30T08:59:14;1.08;86.26
68248;SHT30;55064;49.636;12.164;2024-01-30T09:01:39;1.14;86.09
68248;SHT30;55064;49.636;12.164;2024-01-30T09:04:05;1.04;86.19
68248;SHT30;55064;49.636;12.164;2024-01-30T09:06:31;0.86;86.59
68248;SHT30;55064;49.636;12.164;2024-01-30T09:08:56;0.93;86.81
68248;SHT30;55064;49.636;12.164;2024-01-30T09:11:23;1.03;87.06
68248;SHT30;55064;49.636;12.164;2024-01-30T09:13:48;1.00;87.22
68248;SHT30;55064;49.636;12.164;2024-01-30T09:16:14;1.05;87.28
68248;SHT30;55064;49.636;12.164;2024-01-30T09:18:41;1.04;87.46
68248;SHT30;55064;49.636;12.164;2024-01-30T09:21:06;1.14;87.57
68248;SHT30;55064;49.636;12.164;2024-01-30T09:23:31;1.17;87.80
68248;SHT30;55064;49.636;12.164;2024-01-30T09:25:57;1.31;87.41
68248;SHT30;55064;49.636;12.164;2024-01-30T09:28:23;1.46;87.04
68248;SHT30;55064;49.636;12.164;2024-01-30T09:30:48;1.63;86.80
68248;SHT30;55064;49.636;12.164;2024-01-30T09:33:15;1.74;86.39
68248;SHT30;55064;49.636;12.164;2024-01-30T09:35:40;1.88;85.93
68248;SHT30;55064;49.636;12.164;2024-01-30T09:38:05;1.81;85.42
68248;SHT30;55064;49.636;12.164;2024-01-30T09:40:31;2.06;85.59
68248;SHT30;55064;49.636;12.164;2024-01-30T09:42:56;2.20;85.48
68248;SHT30;55064;49.636;12.164;2024-01-30T09:45:24;2.41;85.03
68248;SHT30;55064;49.636;12.164;2024-01-30T09:47:50;2.67;84.85
68248;SHT30;55064;49.636;12.164;2024-01-30T09:50:16;2.89;84.62
68248;SHT30;55064;49.636;12.164;2024-01-30T09:52:46;2.99;83.67
68248;SHT30;55064;49.636;12.164;2024-01-30T09:55:12;3.24;83.48
68248;SHT30;55064;49.636;12.164;2024-01-30T09:57:38;3.43;83.25
68248;SHT30;55064;49.636;12.164;2024-01-30T10:00:05;3.48;82.57
68248;SHT30;55064;49.636;12.164;2024-01-30T10:02:32;3.70;82.14
68248;SHT30;55064;49.636;12.164;2024-01-30T10:04:59;3.73;81.87
68248;SHT30;55064;49.636;12.164;2024-01-30T10:07:25;3.51;80.83
68248;SHT30;55064;49.636;12.164;2024-01-30T10:09:50;3.59;80.35
68248;SHT30;55064;49.636;12.164;2024-01-30T10:12:15;3.60;80.80
68248;SHT30;55064;49.636;12.164;2024-01-30T10:14:42;3.84;81.27
68248;SHT30;55064;49.636;12.164;2024-01-30T10:17:12;3.97;79.96
68248;SHT30;55064;49.636;12.164;2024-01-30T10:19:41;4.37;79.83
68248;SHT30;55064;49.636;12.164;2024-01-30T10:22:07;4.55;79.60
68248;SHT30;55064;49.636;12.164;2024-01-30T10:24:36;4.81;79.02
68248;SHT30;55064;49.636;12.164;2024-01-30T10:27:02;5.11;78.29
68248;SHT30;55064;49.636;12.164;2024-01-30T10:29:27;5.30;77.21
68248;SHT30;55064;49.636;12.164;2024-01-30T10:32:04;5.27;76.98
68248;SHT30;55064;49.636;12.164;2024-01-30T10:34:30;5.36;76.38
68248;SHT30;55064;49.636;12.164;2024-01-30T10:37:06;5.55;75.86
68248;SHT30;55064;49.636;12.164;2024-01-30T10:39:38;5.52;75.45
68248;SHT30;55064;49.636;12.164;2024-01-30T10:42:05;5.67;74.78
68248;SHT30;55064;49.636;12.164;2024-01-30T10:47:29;5.74;75.10
68248;SHT30;55064;49.636;12.164;2024-01-30T10:49:55;5.56;74.32
68248;SHT30;55064;49.636;12.164;2024-01-30T10:52:23;5.58;74.48
68248;SHT30;55064;49.636;12.164;2024-01-30T10:54:50;5.34;74.54
68248;SHT30;55064;49.636;12.164;2024-01-30T10:57:15;5.46;74.51
68248;SHT30;55064;49.636;12.164;2024-01-30T10:59:42;5.49;74.36
68248;SHT30;55064;49.636;12.164;2024-01-30T11:02:09;5.41;74.25
68248;SHT30;55064;49.636;12.164;2024-01-30T11:04:41;5.25;74.57
68248;SHT30;55064;49.636;12.164;2024-01-30T11:07:16;5.11;73.75
68248;SHT30;55064;49.636;12.164;2024-01-30T11:12:27;5.11;73.99
68248;SHT30;55064;49.636;12.164;2024-01-30T11:15:08;5.07;73.72
68248;SHT30;55064;49.636;12.164;2024-01-30T11:20:21;5.10;74.05
68248;SHT30;55064;49.636;12.164;2024-01-30T11:22:51;5.05;74.04
68248;SHT30;55064;49.636;12.164;2024-01-30T11:25:19;4.94;74.35
68248;SHT30;55064;49.636;12.164;2024-01-30T11:27:46;4.95;74.70
68248;SHT30;55064;49.636;12.164;2024-01-30T11:30:32;4.87;74.91
68248;SHT30;55064;49.636;12.164;2024-01-30T11:33:27;4.86;74.44
68248;SHT30;55064;49.636;12.164;2024-01-30T11:35:57;4.97;74.73
68248;SHT30;55064;49.636;12.164;2024-01-30T11:38:25;5.08;74.67
68248;SHT30;55064;49.636;12.164;2024-01-30T11:40:51;5.18;74.56
68248;SHT30;55064;49.636;12.164;2024-01-30T11:43:18;5.27;74.41
68248;SHT30;55064;49.636;12.164;2024-01-30T11:45:44;5.27;74.48
68248;SHT30;55064;49.636;12.164;2024-01-30T11:48:12;5.34;74.76
68248;SHT30;55064;49.636;12.164;2024-01-30T11:53:28;5.52;74.38
68248;SHT30;55064;49.636;12.164;2024-01-30T11:55:55;5.52;74.44
68248;SHT30;55064;49.636;12.164;2024-01-30T11:58:24;5.46;74.35
68248;SHT30;55064;49.636;12.164;2024-01-30T12:00:56;5.48;73.71
68248;SHT30;55064;49.636;12.164;2024-01-30T12:03:22;5.53;74.06
68248;SHT30;55064;49.636;12.164;2024-01-30T12:05:55;5.48;73.84
68248;SHT30;55064;49.636;12.164;2024-01-30T12:08:20;5.58;74.30
68248;SHT30;55064;49.636;12.164;2024-01-30T12:10:45;5.58;74.46
68248;SHT30;55064;49.636;12.164;2024-01-30T12:13:11;5.56;73.89
68248;SHT30;55064;49.636;12.164;2024-01-30T12:15:37;5.52;74.17
68248;SHT30;55064;49.636;12.164;2024-01-30T12:18:04;5.49;73.95
68248;SHT30;55064;49.636;12.164;2024-01-30T12:20:30;5.56;74.36
68248;SHT30;55064;49.636;12.164;2024-01-30T12:22:55;5.48;74.05
68248;SHT30;55064;49.636;12.164;2024-01-30T12:25:21;5.48;73.61
68248;SHT30;55064;49.636;12.164;2024-01-30T12:27:49;5.49;73.92
68248;SHT30;55064;49.636;12.164;2024-01-30T12:30:15;5.45;73.68
68248;SHT30;55064;49.636;12.164;2024-01-30T12:32:45;5.52;73.44
68248;SHT30;55064;49.636;12.164;2024-01-30T12:35:12;5.56;73.58
68248;SHT30;55064;49.636;12.164;2024-01-30T12:37:38;5.51;73.50
68248;SHT30;55064;49.636;12.164;2024-01-30T12:40:05;5.55;73.78
68248;SHT30;55064;49.636;12.164;2024-01-30T12:42:31;5.56;73.97
68248;SHT30;55064;49.636;12.164;2024-01-30T12:45:00;5.53;74.27
68248;SHT30;55064;49.636;12.164;2024-01-30T12:47:25;5.58;74.06
68248;SHT30;55064;49.636;12.164;2024-01-30T12:49:51;5.67;74.00
68248;SHT30;55064;49.636;12.164;2024-01-30T12:52:20;5.70;74.26
68248;SHT30;55064;49.636;12.164;2024-01-30T12:54:47;5.66;73.54
68248;SHT30;55064;49.636;12.164;2024-01-30T12:57:12;5.70;73.26
68248;SHT30;55064;49.636;12.164;2024-01-30T12:59:37;5.93;72.99
68248;SHT30;55064;49.636;12.164;2024-01-30T13:02:04;6.00;72.97
68248;SHT30;55064;49.636;12.164;2024-01-30T13:04:29;5.97;73.06
68248;SHT30;55064;49.636;12.164;2024-01-30T13:06:55;5.97;72.94
68248;SHT30;55064;49.636;12.164;2024-01-30T13:09:20;5.91;72.67
68248;SHT30;55064;49.636;12.164;2024-01-30T13:11:46;5.87;72.83
68248;SHT30;55064;49.636;12.164;2024-01-30T13:14:11;5.96;73.18
68248;SHT30;55064;49.636;12.164;2024-01-30T13:16:37;6.03;72.81
68248;SHT30;55064;49.636;12.164;2024-01-30T13:19:02;5.97;72.39
68248;SHT30;55064;49.636;12.164;2024-01-30T13:21:29;5.91;72.97
68248;SHT30;55064;49.636;12.164;2024-01-30T13:23:54;5.90;72.69
68248;SHT30;55064;49.636;12.164;2024-01-30T13:26:20;5.90;73.01
68248;SHT30;55064;49.636;12.164;2024-01-30T13:28:46;5.98;72.95
68248;SHT30;55064;49.636;12.164;2024-01-30T13:31:12;6.00;73.12
68248;SHT30;55064;49.636;12.164;2024-01-30T13:33:37;6.01;72.85
68248;SHT30;55064;49.636;12.164;2024-01-30T13:36:03;5.89;73.03
68248;SHT30;55064;49.636;12.164;2024-01-30T13:38:28;5.86;73.34
68248;SHT30;55064;49.636;12.164;2024-01-30T13:40:53;5.85;73.40
68248;SHT30;55064;49.636;12.164;2024-01-30T13:43:19;5.81;73.57
68248;SHT30;55064;49.636;12.164;2024-01-30T13:45:44;5.85;73.71
68248;SHT30;55064;49.636;12.164;2024-01-30T13:48:11;5.87;73.63
68248;SHT30;55064;49.636;12.164;2024-01-30T13:50:36;5.83;74.16
68248;SHT30;55064;49.636;12.164;2024-01-30T13:53:03;5.81;74.26
68248;SHT30;55064;49.636;12.164;2024-01-30T13:55:29;5.79;74.68
68248;SHT30;55064;49.636;12.164;2024-01-30T13:57:54;5.86;74.73
68248;SHT30;55064;49.636;12.164;2024-01-30T14:00:21;5.76;74.46
68248;SHT30;55064;49.636;12.164;2024-01-30T14:02:47;5.80;74.66
68248;SHT30;55064;49.636;12.164;2024-01-30T14:05:12;5.86;74.89
68248;SHT30;55064;49.636;12.164;2024-01-30T14:07:39;5.86;74.96
68248;SHT30;55064;49.636;12.164;2024-01-30T14:10:05;5.80;75.06
68248;SHT30;55064;49.636;12.164;2024-01-30T14:12:31;5.83;75.47
68248;SHT30;55064;49.636;12.164;2024-01-30T14:14:56;5.87;75.62
68248;SHT30;55064;49.636;12.164;2024-01-30T14:17:22;5.94;75.32
68248;SHT30;55064;49.636;12.164;2024-01-30T14:19:47;5.86;74.96
68248;SHT30;55064;49.636;12.164;2024-01-30T14:22:12;5.87;74.97
68248;SHT30;55064;49.636;12.164;2024-01-30T14:24:38;5.90;75.06
68248;SHT30;55064;49.636;12.164;2024-01-30T14:27:03;5.79;75.61
68248;SHT30;55064;49.636;12.164;2024-01-30T14:29:29;5.73;75.46
68248;SHT30;55064;49.636;12.164;2024-01-30T14:31:54;5.69;75.77
68248;SHT30;55064;49.636;12.164;2024-01-30T14:34:20;5.71;75.79
68248;SHT30;55064;49.636;12.164;2024-01-30T14:36:46;5.71;75.79
68248;SHT30;55064;49.636;12.164;2024-01-30T14:39:11;5.69;75.74
68248;SHT30;55064;49.636;12.164;2024-01-30T14:41:36;5.65;75.68
68248;SHT30;55064;49.636;12.164;2024-01-30T14:44:02;5.63;75.98
68248;SHT30;55064;49.636;12.164;2024-01-30T14:46:28;5.56;75.88
68248;SHT30;55064;49.636;12.164;2024-01-30T14:48:53;5.55;76.02
68248;SHT30;55064;49.636;12.164;2024-01-30T14:51:21;5.55;76.20
68248;SHT30;55064;49.636;12.164;2024-01-30T14:53:47;5.46;76.32
68248;SHT30;55064;49.636;12.164;2024-01-30T14:56:12;5.46;76.25
68248;SHT30;55064;49.636;12.164;2024-01-30T14:58:38;5.46;76.36
68248;SHT30;55064;49.636;12.164;2024-01-30T15:01:03;5.43;76.54
68248;SHT30;55064;49.636;12.164;2024-01-30T15:03:28;5.38;76.61
68248;SHT30;55064;49.636;12.164;2024-01-30T15:05:54;5.34;76.77
68248;SHT30;55064;49.636;12.164;2024-01-30T15:08:20;5.35;76.84
68248;SHT30;55064;49.636;12.164;2024-01-30T15:10:46;5.35;76.99
68248;SHT30;55064;49.636;12.164;2024-01-30T15:13:12;5.31;76.98
68248;SHT30;55064;49.636;12.164;2024-01-30T15:15:37;5.30;77.14
68248;SHT30;55064;49.636;12.164;2024-01-30T15:18:03;5.25;77.31
68248;SHT30;55064;49.636;12.164;2024-01-30T15:20:29;5.20;77.37
68248;SHT30;55064;49.636;12.164;2024-01-30T15:22:56;5.18;77.50
68248;SHT30;55064;49.636;12.164;2024-01-30T15:25:21;5.15;77.56
68248;SHT30;55064;49.636;12.164;2024-01-30T15:27:47;5.11;77.58